Latest Weather Observations for High Range (Wanganderry)

IDN60801

Issued at 11:02 am EDT Thursday 21 November 2019 (issued every 10 minutes, with the page automatically refreshed every 10 minutes)

About weather observations | Map of weather stations | Latest weather observations for NSW | Other Formats
Station Details ID: 068262 Name: HIGH RANGE AWS (WANGANDERRY) Lat: -34.33 Lon: 150.27 Height: 813.6 m
Data from the previous 72 hours. | See also: Recent months for locations in New South Wales
Date/Time
EDT
Temp
°C
App
Temp
°C
Dew
Point
°C
Rel
Hum
%
Delta-T
°C
Wind Press
QNH
hPa
Press
MSL
hPa
Rain since
9am
mm
Dir  Spd
km/h
Gust
km/h
Spd
kts
Gust
kts
21/11:00am 28.8 21.4 -7.2 9 15.6 NNE 24 32 13 17 1017.1 1014.3 0.0
21/10:30am 27.4 20.0 -6.9 10 14.8 NNE 24 33 13 18 1017.3 1014.5 0.0
21/10:00am 26.4 20.6 2.3 21 12.2 NNE 22 30 12 16 1017.5 1014.8 0.0
21/09:30am 23.4 18.2 5.3 31 9.5 NNE 22 26 12 14 1017.7 1015.0 0.0
21/09:00am 20.7 16.4 7.7 43 7.0 NNE 20 24 11 13 1017.9 1015.2 -
21/08:30am 19.7 15.2 8.7 49 6.0 NNE 22 26 12 14 1017.8 1015.1 -
21/08:00am 18.1 13.7 8.9 55 5.0 NNE 22 24 12 13 1017.7 1015.0 -
21/07:30am 16.7 12.7 8.9 60 4.2 NNE 20 24 11 13 1017.6 1014.9 -
21/07:00am 15.3 11.0 9.2 67 3.3 N 22 28 12 15 1017.4 1014.6 -
21/06:30am 14.1 10.5 9.9 76 2.3 N 19 22 10 12 1017.5 1014.8 -
21/06:00am 13.4 9.8 10.6 83 1.5 N 20 24 11 13 1017.3 1014.5 -
21/05:30am 12.6 9.0 10.7 88 1.0 N 20 22 11 12 1017.2 1014.4 -
21/05:00am 12.2 9.1 11.7 97 0.3 N 19 20 10 11 1017.1 1014.3 -
21/04:30am 11.6 8.5 11.6 100 0.0 NNE 19 22 10 12 1017.1 1014.3 -
21/04:00am 11.8 8.8 11.8 100 0.0 N 19 20 10 11 1017.2 1014.4 -
21/03:30am 11.3 8.5 11.3 100 0.0 N 17 17 9 9 1017.4 1014.6 -
21/03:00am 10.7 8.1 10.7 100 0.0 NNE 15 17 8 9 1017.6 1014.9 0.0
21/02:30am 10.7 7.3 10.7 100 0.0 NNE 19 24 10 13 1017.7 1015.0 -
21/02:00am 10.7 7.3 10.7 100 0.0 NNE 19 20 10 11 1017.9 1015.2 -
21/01:30am 11.0 8.5 11.0 100 0.0 NNE 15 19 8 10 1018.5 1015.7 -
21/01:00am 11.4 8.6 11.4 100 0.0 N 17 20 9 11 1018.8 1016.1 -
21/12:30am 11.3 8.0 11.0 98 0.2 NNE 19 22 10 12 1019.1 1016.4 -
21/12:00am 11.6 8.1 10.8 95 0.4 NNE 20 26 11 14 1019.4 1016.7 -
 
Date/Time
EDT
Temp
°C
App
Temp
°C
Dew
Point
°C
Rel
Hum
%
Delta-T
°C
Wind Press
QNH
hPa
Press
MSL
hPa
Rain since
9am
mm
Dir  Spd
km/h
Gust
km/h
Spd
kts
Gust
kts
20/11:30pm 11.7 8.2 10.8 94 0.5 NNE 20 26 11 14 1019.5 1016.8 -
20/11:00pm 11.9 8.6 10.8 93 0.6 NNE 19 22 10 12 1019.8 1017.1 -
20/10:30pm 12.2 8.7 10.8 91 0.8 NNE 20 24 11 13 1019.8 1017.1 -
20/10:00pm 12.6 8.7 10.8 89 1.0 NE 22 26 12 14 1019.7 1017.0 -
20/09:30pm 13.0 9.0 10.5 85 1.4 NE 22 28 12 15 1019.5 1016.8 -
20/09:00pm 13.9 9.2 10.5 80 1.9 NE 26 32 14 17 1019.1 1016.4 0.0
20/08:30pm 14.9 10.5 10.5 75 2.4 NE 24 30 13 16 1019.0 1016.3 -
20/08:00pm 15.9 12.3 10.7 71 2.9 NE 20 26 11 14 1018.8 1016.1 -
20/07:30pm 17.1 12.8 10.7 66 3.6 NE 24 30 13 16 1018.2 1015.5 -
20/07:00pm 18.7 14.3 10.5 59 4.6 NE 24 32 13 17 1017.8 1015.1 -
20/06:30pm 20.2 15.5 10.6 54 5.4 NE 26 35 14 19 1017.4 1014.6 -
20/06:00pm 21.8 17.3 10.0 47 6.6 NE 24 33 13 18 1017.2 1014.4 -
20/05:30pm 22.8 18.0 7.4 37 8.3 NE 22 30 12 16 1016.9 1014.2 -
20/05:00pm 24.5 20.6 7.2 33 9.4 ENE 17 22 9 12 1016.7 1014.0 -
20/04:30pm 24.3 21.0 6.6 32 9.5 NNE 13 26 7 14 1016.6 1013.9 -
20/04:00pm 24.5 20.8 6.3 31 9.7 ENE 15 30 8 16 1016.7 1014.0 -
20/03:30pm 25.4 21.9 7.1 31 10.0 NNE 15 26 8 14 1016.7 1014.0 -
20/03:00pm 23.8 20.9 6.6 33 9.2 NNE 11 22 6 12 1016.8 1014.1 0.0
20/02:30pm 24.2 21.1 7.4 34 9.2 N 13 20 7 11 1017.2 1014.4 -
20/02:00pm 22.7 20.0 7.3 37 8.3 NNE 11 19 6 10 1017.4 1014.6 -
20/01:30pm 21.7 19.5 7.9 41 7.5 NNE 9 17 5 9 1017.7 1015.0 -
20/12:30pm 20.7 18.4 9.0 47 6.4 NNE 11 22 6 12 1018.1 1015.4 0.0
20/12:00pm 18.6 16.6 8.6 52 5.4 NE 9 17 5 9 1018.6 1015.9 0.0
20/11:30am 18.1 15.5 9.2 56 4.8 NE 13 24 7 13 1018.6 1015.9 0.0
20/11:00am 17.1 14.0 9.0 59 4.4 NE 15 24 8 13 1018.6 1015.9 0.0
20/10:30am 15.6 12.9 9.1 65 3.5 N 13 22 7 12 1018.8 1016.1 0.0
20/10:00am 14.3 10.9 9.1 71 2.8 NE 17 22 9 12 1019.0 1016.3 0.0
20/09:30am 13.6 10.2 9.3 75 2.3 NE 17 24 9 13 1019.0 1016.3 0.0
20/09:00am 12.8 9.8 9.3 79 1.8 NE 15 19 8 10 1019.2 1016.5 0.0
20/08:30am 12.3 10.0 9.1 81 1.7 SE 11 15 6 8 1019.3 1016.6 0.0
20/08:00am 11.6 10.1 9.3 86 1.2 SSE 7 9 4 5 1019.0 1016.3 0.0
20/07:30am 10.6 9.7 9.2 91 0.7 SSE 4 6 2 3 1018.8 1016.1 0.0
20/07:00am 9.9 8.6 9.3 96 0.3 SSE 6 9 3 5 1018.4 1015.6 0.0
20/06:30am 9.4 8.0 9.4 100 0.0 SSE 7 11 4 6 1018.1 1015.4 0.0
20/06:00am 9.0 7.6 9.0 100 0.0 SSE 6 7 3 4 1017.8 1015.1 0.0
20/05:30am 8.8 7.2 8.8 100 0.0 SSE 7 9 4 5 1017.3 1014.5 0.0
20/05:00am 9.0 7.5 9.0 100 0.0 S 7 9 4 5 1016.9 1014.2 0.0
20/04:30am 9.1 7.6 9.1 100 0.0 S 7 9 4 5 1016.7 1014.0 0.0
20/04:00am 9.3 7.8 9.3 100 0.0 S 7 11 4 6 1016.5 1013.8 0.0
20/03:30am 9.3 8.0 9.3 100 0.0 S 6 7 3 4 1016.5 1013.8 0.0
20/03:00am 9.2 7.3 9.2 100 0.0 S 9 11 5 6 1016.6 1013.9 0.0
20/02:30am 9.4 6.8 9.3 99 0.1 S 13 15 7 8 1016.8 1014.1 0.0
20/02:00am 9.9 7.7 9.4 97 0.3 SSE 11 15 6 8 1016.8 1014.1 0.0
20/01:30am 10.3 8.1 9.4 94 0.5 SSE 11 15 6 8 1017.2 1014.4 0.0
20/01:00am 11.2 9.2 10.0 92 0.6 SE 11 13 6 7 1017.3 1014.5 0.0
20/12:30am 12.5 10.8 11.1 91 0.8 SE 11 13 6 7 1017.5 1014.8 0.0
20/12:00am 12.5 10.8 11.2 92 0.7 SSE 11 15 6 8 1017.4 1014.6 0.0
 
Date/Time
EDT
Temp
°C
App
Temp
°C
Dew
Point
°C
Rel
Hum
%
Delta-T
°C
Wind Press
QNH
hPa
Press
MSL
hPa
Rain since
9am
mm
Dir  Spd
km/h
Gust
km/h
Spd
kts
Gust
kts
19/11:30pm 12.4 10.3 11.0 91 0.8 SSE 13 15 7 8 1017.4 1014.6 0.0
19/11:00pm 12.4 9.1 11.5 94 0.5 SSE 20 24 11 13 1017.3 1014.5 0.0
19/10:30pm 12.1 8.9 11.3 95 0.4 S 19 22 10 12 1017.1 1014.3 0.0
19/10:00pm 12.4 8.3 11.3 93 0.6 S 24 32 13 17 1017.1 1014.3 0.0
19/09:30pm 12.9 9.3 11.8 93 0.6 S 22 32 12 17 1016.5 1013.8 0.0
19/09:00pm 13.3 9.9 12.4 94 0.5 S 22 28 12 15 1015.9 1013.1 0.0
19/08:30pm 13.7 10.7 12.4 92 0.7 SSE 20 32 11 17 1015.2 1012.4 0.0
19/08:00pm 14.6 11.2 12.5 87 1.2 SSE 22 32 12 17 1014.5 1011.7 0.0
19/07:30pm 16.3 12.1 12.3 77 2.3 SE 26 35 14 19 1013.7 1010.9 0.0
19/07:00pm 19.9 15.4 11.4 58 4.9 SSE 26 37 14 20 1012.6 1009.8 0.0
19/06:41pm 23.9 19.2 7.9 36 8.8 S 22 39 12 21 1011.9 1009.0 0.0
19/06:30pm 29.3 21.2 -6.8 9 15.9 WSW 28 41 15 22 1011.5 1008.7 0.0
19/06:00pm 29.9 21.1 -6.4 9 16.2 W 32 50 17 27 1011.4 1008.6 0.0
19/05:51pm 29.8 21.7 -6.4 9 16.1 W 28 50 15 27 1011.2 1008.4 0.0
19/05:30pm 30.0 21.6 -6.3 9 16.2 W 30 46 16 25 1011.3 1008.5 0.0
19/05:29pm 30.0 21.6 -6.3 9 16.2 W 30 46 16 25 1011.3 1008.5 0.0
19/05:00pm 30.3 22.3 -6.1 9 16.3 WNW 28 52 15 28 1011.4 1008.6 0.0
19/04:42pm 30.0 21.7 -4.9 10 15.9 WSW 30 48 16 26 1011.6 1008.8 0.0
19/04:30pm 30.1 21.4 -4.8 10 16.0 W 32 46 17 25 1011.6 1008.8 0.0
19/04:16pm 30.9 22.7 -4.2 10 16.3 WSW 30 46 16 25 1011.6 1008.8 0.0
19/04:07pm 30.6 22.2 -5.8 9 16.4 W 30 48 16 26 1011.5 1008.7 0.0
19/04:00pm 30.3 22.3 -6.1 9 16.3 W 28 48 15 26 1011.6 1008.8 0.0
19/03:59pm 30.4 22.8 -6.0 9 16.4 W 26 48 14 26 1011.6 1008.8 0.0
19/03:34pm 30.2 21.9 -4.8 10 16.0 W 30 57 16 31 1011.8 1008.9 0.0
19/03:30pm 30.3 22.6 -6.1 9 16.3 W 26 37 14 20 1011.9 1009.0 0.0
19/03:00pm 29.4 20.5 -5.4 10 15.7 W 33 56 18 30 1012.2 1009.4 0.0
19/02:32pm 29.8 21.2 -3.8 11 15.6 WSW 32 50 17 27 1012.6 1009.8 0.0
19/02:30pm 30.3 21.8 -3.4 11 15.8 WSW 32 50 17 27 1012.5 1009.7 0.0
19/02:20pm 29.2 20.0 -4.3 11 15.4 WSW 35 52 19 28 1012.6 1009.8 0.0
19/02:08pm 29.3 20.7 -4.2 11 15.4 WSW 32 57 17 31 1012.8 1010.0 0.0
19/02:03pm 29.1 19.9 -4.3 11 15.3 SW 35 54 19 29 1012.8 1010.0 0.0
19/02:00pm 29.7 20.6 -3.9 11 15.6 WSW 35 54 19 29 1012.8 1010.0 0.0
19/01:57pm 29.5 20.7 -4.0 11 15.5 W 33 54 18 29 1012.8 1010.0 0.0
19/01:30pm 28.9 19.8 -3.3 12 15.0 W 35 61 19 33 1013.1 1010.3 0.0
19/01:24pm 28.5 20.3 -3.6 12 14.8 W 30 48 16 26 1013.3 1010.5 0.0
19/01:13pm 28.8 20.3 -3.4 12 14.9 WSW 32 59 17 32 1013.4 1010.6 0.0
19/01:00pm 28.1 18.6 -3.9 12 14.7 WSW 37 57 20 31 1013.6 1010.8 0.0
19/12:30pm 27.8 19.3 -3.1 13 14.3 W 32 59 17 32 1013.9 1011.1 0.0
19/12:21pm 28.5 19.5 -2.6 13 14.6 WSW 35 54 19 29 1014.0 1011.2 0.0
19/12:12pm 27.7 17.5 -3.2 13 14.3 W 41 59 22 32 1014.0 1011.2 0.0
19/12:00pm 27.3 17.8 -3.5 13 14.1 W 37 57 20 31 1014.1 1011.3 0.0
19/11:32am 27.0 19.8 -1.8 15 13.6 WSW 26 50 14 27 1014.5 1011.7 0.0
19/11:30am 27.5 20.4 -1.4 15 13.8 WSW 26 44 14 24 1014.6 1011.8 0.0
19/11:16am 26.5 18.1 -1.3 16 13.2 W 33 54 18 29 1014.7 1011.9 0.0
19/11:00am 25.7 17.5 -1.2 17 12.7 W 32 44 17 24 1015.0 1012.2 0.0
19/10:45am 25.6 17.2 -2.1 16 12.8 WSW 32 50 17 27 1015.0 1012.2 0.0
19/10:43am 25.9 18.0 -1.8 16 12.9 W 30 50 16 27 1015.0 1012.2 0.0
19/10:39am 25.9 19.5 -1.8 16 12.9 W 22 44 12 24 1015.0 1012.2 0.0
19/10:30am 25.5 20.4 -2.1 16 12.8 W 15 22 8 12 1015.0 1012.2 0.0
19/10:00am 24.4 19.4 -1.4 18 12.0 NW 15 24 8 13 1015.2 1012.4 0.0
19/09:30am 23.3 18.0 -0.9 20 11.3 WNW 17 26 9 14 1015.4 1012.7 0.0
19/09:00am 22.4 17.1 -0.3 22 10.6 W 17 22 9 12 1015.9 1013.1 0.0
19/08:30am 21.8 15.6 -0.2 23 10.3 W 22 28 12 15 1015.8 1013.0 0.0
19/08:00am 20.6 14.9 0.4 26 9.4 W 20 28 11 15 1015.5 1012.8 0.0
19/07:30am 19.1 13.0 0.2 28 8.7 W 22 28 12 15 1015.4 1012.7 0.0
19/07:00am 18.1 11.9 -0.2 29 8.3 W 22 28 12 15 1015.1 1012.3 0.0
19/06:30am 17.2 10.7 0.4 32 7.6 W 24 32 13 17 1015.0 1012.2 0.0
19/06:00am 15.8 10.0 0.0 34 7.0 W 20 26 11 14 1014.8 1012.0 0.0
19/05:30am 16.3 10.1 0.0 33 7.3 W 22 33 12 18 1014.6 1011.8 0.0
19/05:00am 16.1 10.4 0.3 34 7.1 W 20 26 11 14 1014.4 1011.6 0.0
19/04:30am 16.1 9.9 -0.2 33 7.3 W 22 28 12 15 1014.4 1011.6 0.0
19/04:00am 17.0 9.7 0.2 32 7.6 WSW 28 35 15 19 1014.1 1011.3 0.0
19/03:30am 17.1 9.8 -0.1 31 7.7 WSW 28 37 15 20 1014.4 1011.6 0.0
19/03:00am 17.3 9.0 0.0 31 7.8 WSW 33 41 18 22 1014.4 1011.6 0.0
19/02:30am 16.9 8.2 -0.3 31 7.7 WSW 35 43 19 23 1014.4 1011.6 0.0
19/02:00am 16.7 8.4 -0.5 31 7.7 SW 33 41 18 22 1014.5 1011.7 0.0
19/01:30am 16.6 8.8 -0.6 31 7.6 WSW 30 35 16 19 1014.8 1012.0 0.0
19/01:00am 16.4 9.4 -0.8 31 7.6 WSW 26 32 14 17 1015.1 1012.3 0.0
19/12:30am 17.3 10.2 -0.9 29 8.1 WSW 26 30 14 16 1015.3 1012.6 0.0
19/12:00am 17.5 10.9 -0.7 29 8.1 WSW 24 32 13 17 1015.9 1013.1 0.0
 
Date/Time
EDT
Temp
°C
App
Temp
°C
Dew
Point
°C
Rel
Hum
%
Delta-T
°C
Wind Press
QNH
hPa
Press
MSL
hPa
Rain since
9am
mm
Dir  Spd
km/h
Gust
km/h
Spd
kts
Gust
kts
18/11:30pm 17.7 11.0 -1.0 28 8.3 WSW 24 30 13 16 1016.1 1013.3 0.0
18/11:00pm 18.3 10.5 -1.0 27 8.6 WSW 30 37 16 20 1016.1 1013.3 0.0
18/10:30pm 18.5 11.8 -1.3 26 8.8 WSW 24 32 13 17 1016.4 1013.7 0.0
18/10:00pm 19.2 11.3 -1.3 25 9.2 WSW 30 39 16 21 1016.1 1013.3 0.0
18/09:30pm 19.7 11.7 -2.0 23 9.6 WSW 30 37 16 20 1015.9 1013.1 0.0
18/09:00pm 20.0 12.8 -2.3 22 9.8 W 26 33 14 18 1015.7 1012.9 0.0
18/08:30pm 20.4 13.1 -2.6 21 10.1 W 26 37 14 20 1015.3 1012.6 0.0
18/08:00pm 20.4 13.5 -2.6 21 10.1 WSW 24 37 13 20 1015.1 1012.3 0.0
18/07:30pm 21.5 13.4 -3.1 19 10.8 W 30 46 16 25 1014.9 1012.1 0.0
18/07:00pm 22.4 15.1 -3.1 18 11.3 WSW 26 35 14 19 1014.9 1012.1 0.0
18/06:30pm 23.2 15.4 -4.0 16 11.9 WSW 28 41 15 22 1014.8 1012.0 0.0
18/06:00pm 23.7 15.8 -4.4 15 12.3 W 28 41 15 22 1014.5 1011.7 0.0
18/05:30pm 24.4 16.4 -5.8 13 12.9 W 28 43 15 23 1014.5 1011.7 0.0
18/05:00pm 24.6 17.1 -4.6 14 12.8 W 26 43 14 23 1014.6 1011.8 0.0
18/04:30pm 24.9 16.9 -5.4 13 13.1 W 28 43 15 23 1014.8 1012.0 0.0
18/04:23pm 24.9 18.3 -3.5 15 12.8 WNW 22 48 12 26 1014.9 1012.1 0.0
18/04:00pm 24.6 17.7 -2.9 16 12.5 W 24 37 13 20 1015.1 1012.3 0.0
18/03:30pm 24.6 18.5 -2.0 17 12.3 WNW 20 39 11 21 1015.3 1012.6 0.0
18/03:00pm 23.8 17.8 -1.2 19 11.6 W 20 35 11 19 1015.7 1012.9 0.0
18/02:30pm 23.0 16.1 -2.6 18 11.5 W 24 35 13 19 1016.1 1013.3 0.0
18/02:00pm 23.4 15.7 -3.0 17 11.8 WSW 28 43 15 23 1016.4 1013.7 0.0
18/01:45pm 23.3 15.7 -2.3 18 11.6 WSW 28 48 15 26 1016.6 1013.9 0.0
18/01:30pm 23.1 16.3 -1.8 19 11.4 WSW 24 39 13 21 1016.9 1014.2 0.0
18/01:23pm 22.3 14.2 -3.1 18 11.3 WSW 30 50 16 27 1017.1 1014.3 0.0
18/01:16pm 23.2 16.2 -3.2 17 11.8 W 24 46 13 25 1016.9 1014.2 0.0
18/01:00pm 22.3 15.8 -2.4 19 11.1 NW 22 39 12 21 1017.2 1014.4 0.0
18/12:30pm 20.8 14.9 -2.3 21 10.3 WNW 19 35 10 19 1017.6 1014.9 0.0
18/12:00pm 21.8 16.0 -0.2 23 10.3 WNW 20 37 11 20 1017.8 1015.1 0.0
18/11:30am 20.1 13.6 0.5 27 9.1 NW 24 37 13 20 1018.5 1015.7 0.0

Other formats

Comma delimited format used in spreadsheet applications
http://www.bom.gov.au/fwo/IDN60801/IDN60801.99742.axf

JavaScript Object Notation format (JSON) in row-major order
http://www.bom.gov.au/fwo/IDN60801/IDN60801.99742.json

Data quality

Most of these data are generated automatically and are frequently updated. Quality checks on data are not normally performed. It is possible for incorrect values to appear. Refer to information at About Latest Weather Observations and please check the disclaimer before using these data.